sensor_id;sensor_type;location;lat;lon;timestamp;pressure;altitude;pressure_sealevel;temperature;humidity
30724;BME280;17473;52.286;20.930;2022-11-20T00:01:30;100212.69;;;-3.37;69.00
30724;BME280;17473;52.286;20.930;2022-11-20T00:04:00;100208.75;;;-3.53;69.59
30724;BME280;17473;52.286;20.930;2022-11-20T00:06:28;100211.88;;;-3.47;69.90
30724;BME280;17473;52.286;20.930;2022-11-20T00:08:58;100211.25;;;-3.44;69.40
30724;BME280;17473;52.286;20.930;2022-11-20T00:11:29;100202.16;;;-3.49;69.76
30724;BME280;17473;52.286;20.930;2022-11-20T00:13:59;100208.38;;;-3.47;69.82
30724;BME280;17473;52.286;20.930;2022-11-20T00:16:29;100204.22;;;-3.55;70.31
30724;BME280;17473;52.286;20.930;2022-11-20T00:18:56;100197.50;;;-3.64;70.53
30724;BME280;17473;52.286;20.930;2022-11-20T00:21:26;100208.22;;;-3.59;70.66
30724;BME280;17473;52.286;20.930;2022-11-20T00:23:55;100214.69;;;-3.54;70.96
30724;BME280;17473;52.286;20.930;2022-11-20T00:26:25;100205.56;;;-3.50;70.41
30724;BME280;17473;52.286;20.930;2022-11-20T00:28:56;100208.91;;;-3.51;70.88
30724;BME280;17473;52.286;20.930;2022-11-20T00:31:25;100205.13;;;-3.65;71.04
30724;BME280;17473;52.286;20.930;2022-11-20T00:33:52;100214.50;;;-3.36;70.36
30724;BME280;17473;52.286;20.930;2022-11-20T00:36:24;100202.97;;;-3.50;71.20
30724;BME280;17473;52.286;20.930;2022-11-20T00:38:53;100202.34;;;-3.37;70.43
30724;BME280;17473;52.286;20.930;2022-11-20T00:41:23;100206.88;;;-3.35;70.31
30724;BME280;17473;52.286;20.930;2022-11-20T00:43:55;100193.94;;;-3.35;70.31
30724;BME280;17473;52.286;20.930;2022-11-20T00:46:25;100201.69;;;-3.35;70.57
30724;BME280;17473;52.286;20.930;2022-11-20T00:48:52;100206.34;;;-3.41;71.04
30724;BME280;17473;52.286;20.930;2022-11-20T00:51:22;100202.97;;;-3.40;71.06
30724;BME280;17473;52.286;20.930;2022-11-20T00:53:50;100194.59;;;-3.27;70.40
30724;BME280;17473;52.286;20.930;2022-11-20T00:56:19;100197.81;;;-3.30;70.63
30724;BME280;17473;52.286;20.930;2022-11-20T00:58:48;100189.81;;;-3.22;70.51
30724;BME280;17473;52.286;20.930;2022-11-20T01:01:19;100192.78;;;-3.18;70.41
30724;BME280;17473;52.286;20.930;2022-11-20T01:03:50;100192.19;;;-3.15;69.92
30724;BME280;17473;52.286;20.930;2022-11-20T01:06:22;100181.97;;;-3.13;70.20
30724;BME280;17473;52.286;20.930;2022-11-20T01:08:52;100183.63;;;-3.24;69.99
30724;BME280;17473;52.286;20.930;2022-11-20T01:11:26;100181.06;;;-3.24;70.05
30724;BME280;17473;52.286;20.930;2022-11-20T01:13:56;100171.50;;;-3.15;69.94
30724;BME280;17473;52.286;20.930;2022-11-20T01:16:36;100174.06;;;-3.05;69.76
30724;BME280;17473;52.286;20.930;2022-11-20T01:19:06;100170.75;;;-3.14;69.93
30724;BME280;17473;52.286;20.930;2022-11-20T01:21:40;100166.72;;;-3.10;69.44
30724;BME280;17473;52.286;20.930;2022-11-20T01:24:12;100166.19;;;-3.06;69.49
30724;BME280;17473;52.286;20.930;2022-11-20T01:26:42;100154.59;;;-3.11;69.19
30724;BME280;17473;52.286;20.930;2022-11-20T01:29:22;100159.50;;;-3.04;69.39
30724;BME280;17473;52.286;20.930;2022-11-20T01:31:50;100161.81;;;-3.28;69.67
30724;BME280;17473;52.286;20.930;2022-11-20T01:34:19;100155.75;;;-3.08;69.27
30724;BME280;17473;52.286;20.930;2022-11-20T01:36:48;100159.22;;;-3.18;69.53
30724;BME280;17473;52.286;20.930;2022-11-20T01:39:19;100146.56;;;-3.15;69.41
30724;BME280;17473;52.286;20.930;2022-11-20T01:41:49;100160.16;;;-3.07;69.47
30724;BME280;17473;52.286;20.930;2022-11-20T01:44:58;100155.09;;;-3.05;68.68
30724;BME280;17473;52.286;20.930;2022-11-20T01:47:44;100172.41;;;-3.04;69.09
30724;BME280;17473;52.286;20.930;2022-11-20T01:50:21;100169.78;;;-3.35;70.02
30724;BME280;17473;52.286;20.930;2022-11-20T01:52:58;100174.22;;;-3.13;69.57
30724;BME280;17473;52.286;20.930;2022-11-20T01:55:44;100179.09;;;-3.17;69.54
30724;BME280;17473;52.286;20.930;2022-11-20T01:58:13;100172.28;;;-3.16;69.45
30724;BME280;17473;52.286;20.930;2022-11-20T02:00:40;100176.91;;;-3.12;69.19
30724;BME280;17473;52.286;20.930;2022-11-20T02:03:12;100178.34;;;-3.16;69.19
30724;BME280;17473;52.286;20.930;2022-11-20T02:06:07;100177.19;;;-3.19;69.40
30724;BME280;17473;52.286;20.930;2022-11-20T02:08:38;100175.66;;;-3.07;68.99
30724;BME280;17473;52.286;20.930;2022-11-20T02:11:05;100178.22;;;-3.07;69.07
30724;BME280;17473;52.286;20.930;2022-11-20T02:13:33;100175.50;;;-3.08;69.36
30724;BME280;17473;52.286;20.930;2022-11-20T02:16:28;100166.59;;;-3.12;69.04
30724;BME280;17473;52.286;20.930;2022-11-20T02:18:59;100164.00;;;-3.12;69.02
30724;BME280;17473;52.286;20.930;2022-11-20T02:24:17;100162.56;;;-2.98;68.63
30724;BME280;17473;52.286;20.930;2022-11-20T02:29:23;100162.56;;;-3.08;69.40
30724;BME280;17473;52.286;20.930;2022-11-20T02:31:51;100163.88;;;-3.13;69.41
30724;BME280;17473;52.286;20.930;2022-11-20T02:34:21;100152.78;;;-3.12;69.98
30724;BME280;17473;52.286;20.930;2022-11-20T02:36:49;100145.66;;;-3.05;70.13
30724;BME280;17473;52.286;20.930;2022-11-20T02:39:16;100145.03;;;-3.12;70.33
30724;BME280;17473;52.286;20.930;2022-11-20T02:41:45;100148.25;;;-3.15;70.50
30724;BME280;17473;52.286;20.930;2022-11-20T02:44:13;100148.38;;;-3.03;70.52
30724;BME280;17473;52.286;20.930;2022-11-20T02:46:40;100141.28;;;-3.06;70.86
30724;BME280;17473;52.286;20.930;2022-11-20T02:49:07;100156.25;;;-3.12;71.28
30724;BME280;17473;52.286;20.930;2022-11-20T02:51:34;100150.59;;;-2.97;70.87
30724;BME280;17473;52.286;20.930;2022-11-20T02:54:01;100143.19;;;-3.24;71.63
30724;BME280;17473;52.286;20.930;2022-11-20T02:56:29;100139.59;;;-3.16;71.71
30724;BME280;17473;52.286;20.930;2022-11-20T02:58:56;100146.84;;;-3.11;72.06
30724;BME280;17473;52.286;20.930;2022-11-20T03:01:23;100152.75;;;-3.23;72.39
30724;BME280;17473;52.286;20.930;2022-11-20T03:03:50;100153.53;;;-3.24;72.57
30724;BME280;17473;52.286;20.930;2022-11-20T03:06:19;100143.06;;;-3.36;73.28
30724;BME280;17473;52.286;20.930;2022-11-20T03:08:46;100140.19;;;-3.49;73.54
30724;BME280;17473;52.286;20.930;2022-11-20T03:11:13;100145.38;;;-3.49;74.17
30724;BME280;17473;52.286;20.930;2022-11-20T03:13:40;100134.03;;;-3.41;73.75
30724;BME280;17473;52.286;20.930;2022-11-20T03:16:20;100139.69;;;-3.55;74.63
30724;BME280;17473;52.286;20.930;2022-11-20T03:18:47;100136.88;;;-3.38;74.28
30724;BME280;17473;52.286;20.930;2022-11-20T03:21:15;100135.19;;;-3.48;74.22
30724;BME280;17473;52.286;20.930;2022-11-20T03:23:43;100137.00;;;-3.47;74.44
30724;BME280;17473;52.286;20.930;2022-11-20T03:26:20;100142.41;;;-3.43;74.52
30724;BME280;17473;52.286;20.930;2022-11-20T03:28:53;100139.22;;;-3.41;74.49
30724;BME280;17473;52.286;20.930;2022-11-20T03:31:24;100147.19;;;-3.38;74.05
30724;BME280;17473;52.286;20.930;2022-11-20T03:33:52;100142.94;;;-3.17;73.64
30724;BME280;17473;52.286;20.930;2022-11-20T03:36:21;100141.28;;;-3.26;73.77
30724;BME280;17473;52.286;20.930;2022-11-20T03:38:48;100135.56;;;-3.22;73.93
30724;BME280;17473;52.286;20.930;2022-11-20T03:41:20;100141.28;;;-3.26;73.99
30724;BME280;17473;52.286;20.930;2022-11-20T03:43:50;100140.13;;;-3.09;73.48
30724;BME280;17473;52.286;20.930;2022-11-20T03:46:18;100145.91;;;-3.22;74.18
30724;BME280;17473;52.286;20.930;2022-11-20T03:48:45;100140.47;;;-3.05;73.44
30724;BME280;17473;52.286;20.930;2022-11-20T03:51:27;100135.97;;;-3.07;73.55
30724;BME280;17473;52.286;20.930;2022-11-20T03:53:58;100131.97;;;-3.24;74.11
30724;BME280;17473;52.286;20.930;2022-11-20T03:56:29;100136.09;;;-3.26;74.36
30724;BME280;17473;52.286;20.930;2022-11-20T03:58:56;100133.91;;;-3.32;74.83
30724;BME280;17473;52.286;20.930;2022-11-20T04:01:27;100132.63;;;-3.37;75.37
30724;BME280;17473;52.286;20.930;2022-11-20T04:03:56;100130.94;;;-3.37;74.88
30724;BME280;17473;52.286;20.930;2022-11-20T04:06:27;100141.91;;;-3.39;75.38
30724;BME280;17473;52.286;20.930;2022-11-20T04:08:56;100148.75;;;-3.50;75.96
30724;BME280;17473;52.286;20.930;2022-11-20T04:11:32;100138.53;;;-3.49;75.85
30724;BME280;17473;52.286;20.930;2022-11-20T04:14:03;100141.13;;;-3.49;76.11
30724;BME280;17473;52.286;20.930;2022-11-20T04:16:35;100134.25;;;-3.48;76.45
30724;BME280;17473;52.286;20.930;2022-11-20T04:19:05;100132.59;;;-3.58;76.47
30724;BME280;17473;52.286;20.930;2022-11-20T04:21:33;100135.94;;;-3.59;77.11
30724;BME280;17473;52.286;20.930;2022-11-20T04:24:00;100134.53;;;-3.55;77.25
30724;BME280;17473;52.286;20.930;2022-11-20T04:26:29;100132.72;;;-3.56;77.18
30724;BME280;17473;52.286;20.930;2022-11-20T04:28:57;100124.47;;;-3.52;77.48
30724;BME280;17473;52.286;20.930;2022-11-20T04:31:28;100137.47;;;-3.61;77.96
30724;BME280;17473;52.286;20.930;2022-11-20T04:33:58;100131.31;;;-3.63;78.17
30724;BME280;17473;52.286;20.930;2022-11-20T04:36:28;100131.16;;;-3.65;78.28
30724;BME280;17473;52.286;20.930;2022-11-20T04:38:58;100132.28;;;-3.71;78.89
30724;BME280;17473;52.286;20.930;2022-11-20T04:41:32;100131.78;;;-3.67;78.80
30724;BME280;17473;52.286;20.930;2022-11-20T04:44:01;100132.16;;;-3.73;79.12
30724;BME280;17473;52.286;20.930;2022-11-20T04:46:36;100132.03;;;-3.74;79.75
30724;BME280;17473;52.286;20.930;2022-11-20T04:49:04;100131.91;;;-3.66;78.95
30724;BME280;17473;52.286;20.930;2022-11-20T04:51:32;100134.09;;;-3.70;79.38
30724;BME280;17473;52.286;20.930;2022-11-20T04:54:00;100129.59;;;-3.73;79.28
30724;BME280;17473;52.286;20.930;2022-11-20T04:56:27;100130.88;;;-3.78;79.67
30724;BME280;17473;52.286;20.930;2022-11-20T04:58:55;100131.25;;;-3.84;79.56
30724;BME280;17473;52.286;20.930;2022-11-20T05:01:23;100126.19;;;-3.93;80.02
30724;BME280;17473;52.286;20.930;2022-11-20T05:03:51;100123.19;;;-3.97;80.32
30724;BME280;17473;52.286;20.930;2022-11-20T05:06:20;100125.38;;;-4.02;80.30
30724;BME280;17473;52.286;20.930;2022-11-20T05:08:48;100121.25;;;-4.00;80.63
30724;BME280;17473;52.286;20.930;2022-11-20T05:11:20;100117.78;;;-4.00;80.53
30724;BME280;17473;52.286;20.930;2022-11-20T05:13:49;100126.06;;;-3.94;80.20
30724;BME280;17473;52.286;20.930;2022-11-20T05:16:22;100117.88;;;-4.09;80.68
30724;BME280;17473;52.286;20.930;2022-11-20T05:18:55;100119.41;;;-4.11;81.02
30724;BME280;17473;52.286;20.930;2022-11-20T05:21:22;100120.16;;;-4.22;81.38
30724;BME280;17473;52.286;20.930;2022-11-20T05:23:49;100114.44;;;-4.29;81.46
30724;BME280;17473;52.286;20.930;2022-11-20T05:26:22;100118.22;;;-4.15;81.12
30724;BME280;17473;52.286;20.930;2022-11-20T05:28:49;100113.06;;;-4.15;81.44
30724;BME280;17473;52.286;20.930;2022-11-20T05:31:20;100105.06;;;-4.28;81.30
30724;BME280;17473;52.286;20.930;2022-11-20T05:33:54;100105.28;;;-4.35;81.92
30724;BME280;17473;52.286;20.930;2022-11-20T05:36:22;100113.25;;;-4.32;81.75
30724;BME280;17473;52.286;20.930;2022-11-20T05:38:49;100110.03;;;-4.30;81.53
30724;BME280;17473;52.286;20.930;2022-11-20T05:41:20;100112.06;;;-4.06;81.54
30724;BME280;17473;52.286;20.930;2022-11-20T05:43:48;100101.06;;;-4.25;81.14
30724;BME280;17473;52.286;20.930;2022-11-20T05:46:19;100110.16;;;-4.38;81.48
30724;BME280;17473;52.286;20.930;2022-11-20T05:48:55;100097.13;;;-4.40;81.98
30724;BME280;17473;52.286;20.930;2022-11-20T05:51:22;100098.25;;;-4.47;82.44
30724;BME280;17473;52.286;20.930;2022-11-20T05:53:50;100098.44;;;-4.35;81.55
30724;BME280;17473;52.286;20.930;2022-11-20T05:56:20;100100.06;;;-4.46;82.08
30724;BME280;17473;52.286;20.930;2022-11-20T05:58:48;100089.06;;;-4.53;81.82
30724;BME280;17473;52.286;20.930;2022-11-20T06:01:22;100092.28;;;-4.56;82.23
30724;BME280;17473;52.286;20.930;2022-11-20T06:03:50;100084.69;;;-4.54;82.42
30724;BME280;17473;52.286;20.930;2022-11-20T06:06:19;100086.72;;;-4.61;82.20
30724;BME280;17473;52.286;20.930;2022-11-20T06:08:47;100086.63;;;-4.52;82.03
30724;BME280;17473;52.286;20.930;2022-11-20T06:11:16;100091.88;;;-4.61;82.36
30724;BME280;17473;52.286;20.930;2022-11-20T06:13:43;100083.09;;;-4.63;82.55
30724;BME280;17473;52.286;20.930;2022-11-20T06:16:12;100077.47;;;-4.59;82.39
30724;BME280;17473;52.286;20.930;2022-11-20T06:18:40;100076.88;;;-4.46;81.72
30724;BME280;17473;52.286;20.930;2022-11-20T06:21:33;100084.69;;;-4.54;82.19
30724;BME280;17473;52.286;20.930;2022-11-20T06:24:00;100080.22;;;-4.47;81.80
30724;BME280;17473;52.286;20.930;2022-11-20T06:26:27;100089.56;;;-4.28;81.39
30724;BME280;17473;52.286;20.930;2022-11-20T06:28:55;100083.72;;;-4.36;81.13
30724;BME280;17473;52.286;20.930;2022-11-20T06:31:25;100078.97;;;-4.31;81.00
30724;BME280;17473;52.286;20.930;2022-11-20T06:33:53;100078.34;;;-4.29;80.82
30724;BME280;17473;52.286;20.930;2022-11-20T06:36:22;100080.16;;;-4.28;80.97
30724;BME280;17473;52.286;20.930;2022-11-20T06:38:50;100086.84;;;-4.30;80.99
30724;BME280;17473;52.286;20.930;2022-11-20T06:41:20;100080.03;;;-4.29;81.22
30724;BME280;17473;52.286;20.930;2022-11-20T06:43:48;100081.47;;;-4.12;80.55
30724;BME280;17473;52.286;20.930;2022-11-20T06:46:17;100080.44;;;-4.25;80.67
30724;BME280;17473;52.286;20.930;2022-11-20T06:48:45;100085.06;;;-4.31;81.07
30724;BME280;17473;52.286;20.930;2022-11-20T06:51:13;100081.13;;;-4.06;80.28
30724;BME280;17473;52.286;20.930;2022-11-20T06:53:40;100077.19;;;-3.72;79.36
30724;BME280;17473;52.286;20.930;2022-11-20T06:56:07;100083.69;;;-4.06;79.72
30724;BME280;17473;52.286;20.930;2022-11-20T06:58:35;100079.84;;;-4.01;79.92
30724;BME280;17473;52.286;20.930;2022-11-20T07:01:11;100076.38;;;-3.91;79.47
30724;BME280;17473;52.286;20.930;2022-11-20T07:03:39;100069.94;;;-3.97;80.03
30724;BME280;17473;52.286;20.930;2022-11-20T07:06:07;100072.28;;;-3.89;79.80
30724;BME280;17473;52.286;20.930;2022-11-20T07:08:35;100072.31;;;-3.69;78.85
30724;BME280;17473;52.286;20.930;2022-11-20T07:11:05;100069.47;;;-3.31;77.12
30724;BME280;17473;52.286;20.930;2022-11-20T07:13:33;100076.16;;;-2.48;74.12
30724;BME280;17473;52.286;20.930;2022-11-20T07:16:03;100082.06;;;-2.39;72.95
30724;BME280;17473;52.286;20.930;2022-11-20T07:18:30;100063.72;;;-1.53;71.05
30724;BME280;17473;52.286;20.930;2022-11-20T07:21:07;100065.09;;;-0.65;66.90
30724;BME280;17473;52.286;20.930;2022-11-20T07:23:35;100064.50;;;-0.49;65.57
30724;BME280;17473;52.286;20.930;2022-11-20T07:26:10;100061.81;;;-0.02;64.11
30724;BME280;17473;52.286;20.930;2022-11-20T07:28:38;100059.75;;;0.43;62.36
30724;BME280;17473;52.286;20.930;2022-11-20T07:31:05;100067.88;;;0.87;59.88
30724;BME280;17473;52.286;20.930;2022-11-20T07:33:34;100064.00;;;0.93;60.01
30724;BME280;17473;52.286;20.930;2022-11-20T07:36:01;100057.69;;;1.03;59.47
30724;BME280;17473;52.286;20.930;2022-11-20T07:38:28;100061.91;;;1.55;58.72
30724;BME280;17473;52.286;20.930;2022-11-20T07:40:57;100062.47;;;2.05;56.77
30724;BME280;17473;52.286;20.930;2022-11-20T07:43:25;100056.81;;;1.83;55.74
30724;BME280;17473;52.286;20.930;2022-11-20T07:45:52;100052.22;;;2.08;55.89
30724;BME280;17473;52.286;20.930;2022-11-20T07:48:21;100046.09;;;1.79;55.95
30724;BME280;17473;52.286;20.930;2022-11-20T07:50:48;100045.66;;;2.86;54.59
30724;BME280;17473;52.286;20.930;2022-11-20T07:53:15;100052.25;;;2.51;53.59
30724;BME280;17473;52.286;20.930;2022-11-20T07:55:47;100041.88;;;2.81;53.06
30724;BME280;17473;52.286;20.930;2022-11-20T07:58:15;100047.81;;;2.78;52.85
30724;BME280;17473;52.286;20.930;2022-11-20T08:00:42;100043.06;;;3.63;51.16
30724;BME280;17473;52.286;20.930;2022-11-20T08:03:09;100050.66;;;3.28;51.01
30724;BME280;17473;52.286;20.930;2022-11-20T08:05:36;100052.81;;;2.75;52.48
30724;BME280;17473;52.286;20.930;2022-11-20T08:08:04;100049.25;;;3.18;51.73
30724;BME280;17473;52.286;20.930;2022-11-20T08:10:31;100050.16;;;3.65;50.52
30724;BME280;17473;52.286;20.930;2022-11-20T08:12:58;100038.31;;;4.03;49.41
30724;BME280;17473;52.286;20.930;2022-11-20T08:15:49;100034.34;;;4.43;49.07
30724;BME280;17473;52.286;20.930;2022-11-20T08:18:19;100038.03;;;4.98;47.31
30724;BME280;17473;52.286;20.930;2022-11-20T08:21:01;100038.34;;;5.40;46.73
30724;BME280;17473;52.286;20.930;2022-11-20T08:23:28;100036.22;;;5.87;45.64
30724;BME280;17473;52.286;20.930;2022-11-20T08:25:55;100034.00;;;5.59;45.20
30724;BME280;17473;52.286;20.930;2022-11-20T08:28:22;100034.63;;;5.35;46.13
30724;BME280;17473;52.286;20.930;2022-11-20T08:30:50;100033.66;;;4.98;46.48
30724;BME280;17473;52.286;20.930;2022-11-20T08:33:18;100036.81;;;4.91;46.99
30724;BME280;17473;52.286;20.930;2022-11-20T08:35:45;100038.56;;;5.09;46.33
30724;BME280;17473;52.286;20.930;2022-11-20T08:38:13;100040.81;;;4.84;46.64
30724;BME280;17473;52.286;20.930;2022-11-20T08:40:40;100030.88;;;4.61;47.38
30724;BME280;17473;52.286;20.930;2022-11-20T08:43:07;100033.41;;;5.28;45.90
30724;BME280;17473;52.286;20.930;2022-11-20T08:45:34;100023.75;;;5.82;44.65
30724;BME280;17473;52.286;20.930;2022-11-20T08:48:02;100024.59;;;5.44;45.13
30724;BME280;17473;52.286;20.930;2022-11-20T08:50:30;100021.97;;;5.26;45.36
30724;BME280;17473;52.286;20.930;2022-11-20T08:53:05;100008.63;;;4.34;47.33
30724;BME280;17473;52.286;20.930;2022-11-20T08:55:32;100011.16;;;5.02;46.61
30724;BME280;17473;52.286;20.930;2022-11-20T08:58:05;99988.22;;;5.88;44.82
30724;BME280;17473;52.286;20.930;2022-11-20T09:00:34;99996.16;;;5.34;44.91
30724;BME280;17473;52.286;20.930;2022-11-20T09:03:01;100000.91;;;4.89;45.90
30724;BME280;17473;52.286;20.930;2022-11-20T09:05:28;99993.97;;;5.25;46.10
30724;BME280;17473;52.286;20.930;2022-11-20T09:07:59;99989.34;;;5.38;46.04
30724;BME280;17473;52.286;20.930;2022-11-20T09:10:27;99993.63;;;5.91;44.42
30724;BME280;17473;52.286;20.930;2022-11-20T09:12:54;99984.28;;;5.78;44.42
30724;BME280;17473;52.286;20.930;2022-11-20T09:15:25;99986.34;;;6.43;43.59
30724;BME280;17473;52.286;20.930;2022-11-20T09:17:56;99981.44;;;7.35;42.26
30724;BME280;17473;52.286;20.930;2022-11-20T09:20:24;99981.81;;;8.13;40.83
30724;BME280;17473;52.286;20.930;2022-11-20T09:22:51;99977.66;;;8.68;39.89
30724;BME280;17473;52.286;20.930;2022-11-20T09:25:18;99981.25;;;8.46;39.53
30724;BME280;17473;52.286;20.930;2022-11-20T09:27:45;99976.16;;;8.26;40.34
30724;BME280;17473;52.286;20.930;2022-11-20T09:30:14;99970.13;;;7.82;39.90
30724;BME280;17473;52.286;20.930;2022-11-20T09:32:42;99970.88;;;8.49;40.10
30724;BME280;17473;52.286;20.930;2022-11-20T09:35:09;99970.28;;;8.84;38.94
30724;BME280;17473;52.286;20.930;2022-11-20T09:37:37;99967.22;;;9.23;38.45
30724;BME280;17473;52.286;20.930;2022-11-20T09:40:05;99961.16;;;8.72;38.41
30724;BME280;17473;52.286;20.930;2022-11-20T09:42:54;99962.41;;;8.34;40.19
30724;BME280;17473;52.286;20.930;2022-11-20T09:54:17;99963.13;;;9.05;38.77
30724;BME280;17473;52.286;20.930;2022-11-20T09:57:00;99961.22;;;7.78;39.83
30724;BME280;17473;52.286;20.930;2022-11-20T09:59:50;99957.94;;;7.84;40.74
30724;BME280;17473;52.286;20.930;2022-11-20T10:02:36;99955.50;;;8.61;39.58
30724;BME280;17473;52.286;20.930;2022-11-20T10:05:40;99946.53;;;8.32;39.61
30724;BME280;17473;52.286;20.930;2022-11-20T10:11:21;99953.41;;;7.34;41.19
30724;BME280;17473;52.286;20.930;2022-11-20T10:14:37;99951.47;;;7.08;42.57
30724;BME280;17473;52.286;20.930;2022-11-20T10:20:20;99959.13;;;6.82;41.93
30724;BME280;17473;52.286;20.930;2022-11-20T10:26:01;99947.97;;;6.45;43.14
30724;BME280;17473;52.286;20.930;2022-11-20T10:29:10;99942.44;;;6.18;44.04
30724;BME280;17473;52.286;20.930;2022-11-20T10:31:40;99941.28;;;6.32;43.64
30724;BME280;17473;52.286;20.930;2022-11-20T10:37:26;99935.84;;;6.68;43.14
30724;BME280;17473;52.286;20.930;2022-11-20T10:40:00;99938.53;;;6.70;43.82
30724;BME280;17473;52.286;20.930;2022-11-20T10:42:46;99929.56;;;6.65;44.15
30724;BME280;17473;52.286;20.930;2022-11-20T10:48:20;99927.31;;;7.62;42.81
30724;BME280;17473;52.286;20.930;2022-11-20T10:51:13;99933.88;;;7.50;42.45
30724;BME280;17473;52.286;20.930;2022-11-20T10:56:52;99935.34;;;7.89;41.48
30724;BME280;17473;52.286;20.930;2022-11-20T11:02:23;99930.84;;;7.17;42.88
30724;BME280;17473;52.286;20.930;2022-11-20T11:04:53;99925.34;;;6.68;43.61
30724;BME280;17473;52.286;20.930;2022-11-20T11:07:38;99930.53;;;6.67;43.74
30724;BME280;17473;52.286;20.930;2022-11-20T11:10:39;99919.78;;;6.20;44.70
30724;BME280;17473;52.286;20.930;2022-11-20T11:13:29;99911.59;;;7.18;43.39
30724;BME280;17473;52.286;20.930;2022-11-20T11:15:57;99909.88;;;7.64;42.44
30724;BME280;17473;52.286;20.930;2022-11-20T11:18:31;99920.72;;;6.84;43.63
30724;BME280;17473;52.286;20.930;2022-11-20T11:21:02;99922.47;;;6.21;44.65
30724;BME280;17473;52.286;20.930;2022-11-20T11:23:39;99913.84;;;6.04;45.59
30724;BME280;17473;52.286;20.930;2022-11-20T11:26:23;99913.88;;;6.66;44.44
30724;BME280;17473;52.286;20.930;2022-11-20T11:29:17;99910.19;;;6.82;43.67
30724;BME280;17473;52.286;20.930;2022-11-20T11:31:44;99908.03;;;6.31;44.66
30724;BME280;17473;52.286;20.930;2022-11-20T11:34:13;99913.59;;;6.58;44.46
30724;BME280;17473;52.286;20.930;2022-11-20T11:36:41;99901.53;;;6.42;44.39
30724;BME280;17473;52.286;20.930;2022-11-20T11:39:15;99896.78;;;6.55;44.21
30724;BME280;17473;52.286;20.930;2022-11-20T11:41:43;99903.44;;;6.47;44.26
30724;BME280;17473;52.286;20.930;2022-11-20T11:44:23;99897.56;;;6.52;44.00
30724;BME280;17473;52.286;20.930;2022-11-20T11:49:45;99904.78;;;6.37;44.80
30724;BME280;17473;52.286;20.930;2022-11-20T11:52:21;99893.84;;;6.26;44.87
30724;BME280;17473;52.286;20.930;2022-11-20T11:54:57;99893.00;;;6.27;45.11
30724;BME280;17473;52.286;20.930;2022-11-20T11:57:48;99894.03;;;6.31;44.97
30724;BME280;17473;52.286;20.930;2022-11-20T12:00:19;99912.25;;;4.95;47.23
30724;BME280;17473;52.286;20.930;2022-11-20T12:03:03;99896.19;;;4.87;47.82
30724;BME280;17473;52.286;20.930;2022-11-20T12:05:42;99886.69;;;4.89;47.83
30724;BME280;17473;52.286;20.930;2022-11-20T12:08:23;99876.28;;;5.27;47.25
30724;BME280;17473;52.286;20.930;2022-11-20T12:11:14;99873.53;;;5.06;47.51
30724;BME280;17473;52.286;20.930;2022-11-20T12:14:07;99895.47;;;4.55;48.31
30724;BME280;17473;52.286;20.930;2022-11-20T12:16:38;99869.66;;;4.97;47.82
30724;BME280;17473;52.286;20.930;2022-11-20T12:19:13;99875.25;;;4.51;48.70
30724;BME280;17473;52.286;20.930;2022-11-20T12:25:06;99869.75;;;4.28;49.00
30724;BME280;17473;52.286;20.930;2022-11-20T12:27:56;99873.06;;;4.07;49.97
30724;BME280;17473;52.286;20.930;2022-11-20T12:30:26;99869.84;;;4.13;50.32
30724;BME280;17473;52.286;20.930;2022-11-20T12:38:58;99852.59;;;3.82;51.12
30724;BME280;17473;52.286;20.930;2022-11-20T12:42:19;99848.75;;;3.75;51.35
30724;BME280;17473;52.286;20.930;2022-11-20T12:48:15;99848.09;;;3.47;52.37
30724;BME280;17473;52.286;20.930;2022-11-20T12:51:26;99849.25;;;3.35;52.84
30724;BME280;17473;52.286;20.930;2022-11-20T12:54:20;99840.19;;;3.45;52.32
30724;BME280;17473;52.286;20.930;2022-11-20T12:57:09;99843.56;;;2.94;53.56
30724;BME280;17473;52.286;20.930;2022-11-20T13:00:22;99840.19;;;3.12;53.58
30724;BME280;17473;52.286;20.930;2022-11-20T13:05:55;99828.00;;;2.49;55.45
30724;BME280;17473;52.286;20.930;2022-11-20T13:08:40;99831.53;;;2.35;55.86
30724;BME280;17473;52.286;20.930;2022-11-20T13:11:37;99815.25;;;2.39;55.49
30724;BME280;17473;52.286;20.930;2022-11-20T13:14:28;99813.28;;;2.35;55.90
30724;BME280;17473;52.286;20.930;2022-11-20T13:17:34;99818.59;;;2.22;56.34
30724;BME280;17473;52.286;20.930;2022-11-20T13:20:06;99814.44;;;2.25;55.83
30724;BME280;17473;52.286;20.930;2022-11-20T13:22:53;99812.56;;;2.23;56.08
30724;BME280;17473;52.286;20.930;2022-11-20T13:27:59;99804.94;;;1.96;57.07
30724;BME280;17473;52.286;20.930;2022-11-20T13:30:29;99810.34;;;2.14;56.84
30724;BME280;17473;52.286;20.930;2022-11-20T13:35:42;99812.38;;;1.75;58.29
30724;BME280;17473;52.286;20.930;2022-11-20T13:38:12;99807.53;;;1.81;58.40
30724;BME280;17473;52.286;20.930;2022-11-20T13:40:58;99799.19;;;1.86;58.70
30724;BME280;17473;52.286;20.930;2022-11-20T13:43:37;99803.25;;;1.81;60.04
30724;BME280;17473;52.286;20.930;2022-11-20T13:46:09;99805.66;;;1.78;59.54
30724;BME280;17473;52.286;20.930;2022-11-20T13:48:45;99799.81;;;1.67;60.18
30724;BME280;17473;52.286;20.930;2022-11-20T13:51:50;99801.50;;;1.82;60.35
30724;BME280;17473;52.286;20.930;2022-11-20T13:54:41;99792.28;;;1.87;59.75
30724;BME280;17473;52.286;20.930;2022-11-20T13:57:51;99788.78;;;2.16;59.14
30724;BME280;17473;52.286;20.930;2022-11-20T14:00:24;99786.97;;;1.85;59.76
30724;BME280;17473;52.286;20.930;2022-11-20T14:05:38;99779.78;;;1.66;60.30
30724;BME280;17473;52.286;20.930;2022-11-20T14:08:13;99782.84;;;1.59;60.94
30724;BME280;17473;52.286;20.930;2022-11-20T14:10:40;99783.59;;;1.43;61.85
30724;BME280;17473;52.286;20.930;2022-11-20T14:13:18;99775.28;;;1.49;61.65
30724;BME280;17473;52.286;20.930;2022-11-20T14:15:45;99775.31;;;1.64;61.95
30724;BME280;17473;52.286;20.930;2022-11-20T14:18:21;99771.06;;;1.51;62.89
30724;BME280;17473;52.286;20.930;2022-11-20T14:20:51;99775.69;;;1.27;64.74